createdAt,value
2023-08-17T00:01:02.398Z,19.38
2023-08-17T00:04:04.228Z,19.40
2023-08-17T00:07:06.267Z,19.45
2023-08-17T00:10:08.206Z,19.41
2023-08-17T00:13:09.836Z,19.48
2023-08-17T00:16:11.474Z,19.50
2023-08-17T00:19:15.548Z,19.49
2023-08-17T00:22:17.248Z,19.52
2023-08-17T00:25:18.836Z,19.49
2023-08-17T00:28:20.493Z,19.44
2023-08-17T00:31:22.154Z,19.47
2023-08-17T00:34:23.854Z,19.41
2023-08-17T00:37:25.784Z,19.35
2023-08-17T00:40:27.590Z,19.34
2023-08-17T00:43:29.283Z,19.45
2023-08-17T00:46:31.543Z,19.46
2023-08-17T00:49:33.810Z,19.43
2023-08-17T00:52:35.790Z,19.50
2023-08-17T00:55:37.463Z,19.55
2023-08-17T00:58:39.206Z,19.55
2023-08-17T01:01:40.963Z,19.58
2023-08-17T01:04:42.590Z,19.54
2023-08-17T01:07:44.290Z,19.38
2023-08-17T01:11:00.589Z,19.40
2023-08-17T01:14:23.271Z,19.38
2023-08-17T01:17:32.833Z,19.32
2023-08-17T01:20:35.387Z,19.32
2023-08-17T01:23:37.027Z,19.37
2023-08-17T01:26:38.802Z,19.30
2023-08-17T01:29:40.862Z,19.18
2023-08-17T01:32:59.249Z,19.13
2023-08-17T01:36:07.017Z,19.08
2023-08-17T01:39:09.502Z,19.06
2023-08-17T01:42:13.492Z,19.09
2023-08-17T01:45:15.201Z,19.20
2023-08-17T01:48:16.799Z,19.25
2023-08-17T01:51:21.085Z,19.30
2023-08-17T01:54:23.048Z,19.44
2023-08-17T01:57:24.841Z,19.43
2023-08-17T02:00:26.655Z,19.54
2023-08-17T02:03:30.133Z,19.59
2023-08-17T02:06:31.848Z,19.47
2023-08-17T02:09:33.497Z,19.61
2023-08-17T02:12:35.110Z,19.67
2023-08-17T02:15:42.530Z,19.61
2023-08-17T02:18:44.162Z,19.57
2023-08-17T02:21:46.525Z,19.57
2023-08-17T02:24:48.159Z,19.57
2023-08-17T02:27:49.808Z,19.47
2023-08-17T02:30:56.727Z,19.56
2023-08-17T02:34:06.126Z,19.53
2023-08-17T02:37:07.870Z,19.56
2023-08-17T02:40:10.040Z,19.50
2023-08-17T02:43:11.654Z,19.51
2023-08-17T02:46:13.279Z,19.48
2023-08-17T02:49:14.970Z,19.54
2023-08-17T02:52:16.554Z,19.50
2023-08-17T02:55:18.250Z,19.49
2023-08-17T02:58:20.555Z,19.49
2023-08-17T03:01:22.274Z,19.42
2023-08-17T03:04:24.163Z,19.38
2023-08-17T03:07:25.936Z,19.23
2023-08-17T03:10:27.900Z,19.15
2023-08-17T03:13:29.486Z,19.11
2023-08-17T03:16:31.531Z,19.15
2023-08-17T03:19:33.660Z,19.12
2023-08-17T03:22:36.223Z,19.17
2023-08-17T03:25:38.826Z,19.16
2023-08-17T03:28:40.458Z,19.17
2023-08-17T03:31:42.108Z,19.16
2023-08-17T03:34:43.866Z,19.19
2023-08-17T03:37:46.500Z,19.23
2023-08-17T03:40:48.764Z,19.26
2023-08-17T03:43:50.571Z,19.36
2023-08-17T03:46:52.215Z,19.43
2023-08-17T03:49:53.853Z,19.45
2023-08-17T03:52:55.427Z,19.44
2023-08-17T03:55:57.081Z,19.46
2023-08-17T03:58:59.723Z,19.52
2023-08-17T04:02:01.413Z,19.56
2023-08-17T04:05:03.539Z,19.59
2023-08-17T04:08:05.304Z,19.58
2023-08-17T04:11:07.158Z,19.49
2023-08-17T04:14:10.100Z,19.54
2023-08-17T04:17:12.921Z,19.68
2023-08-17T04:20:14.793Z,19.71
2023-08-17T04:23:16.394Z,19.75
2023-08-17T04:26:17.997Z,19.79
2023-08-17T04:29:19.637Z,19.84
2023-08-17T04:32:21.344Z,19.79
2023-08-17T04:35:23.191Z,19.79
2023-08-17T04:38:24.829Z,19.87
2023-08-17T04:41:26.452Z,19.90
2023-08-17T04:44:28.069Z,19.91
2023-08-17T04:47:29.829Z,19.91
2023-08-17T04:50:31.520Z,19.93
2023-08-17T04:53:33.179Z,19.97
2023-08-17T04:56:34.871Z,19.98
2023-08-17T04:59:36.464Z,20.02
2023-08-17T05:02:38.643Z,20.17
2023-08-17T05:05:40.373Z,20.27
2023-08-17T05:08:41.935Z,20.37
2023-08-17T05:11:43.536Z,20.45
2023-08-17T05:14:45.138Z,20.49
2023-08-17T05:17:46.832Z,20.56
2023-08-17T05:20:48.495Z,20.57
2023-08-17T05:23:50.058Z,20.65
2023-08-17T05:26:51.666Z,20.67
2023-08-17T05:29:53.327Z,20.82
2023-08-17T05:32:55.017Z,20.71
2023-08-17T05:35:56.658Z,20.78
2023-08-17T05:38:58.354Z,20.86
2023-08-17T05:42:00.049Z,21.03
2023-08-17T05:45:01.653Z,21.02
2023-08-17T05:48:03.695Z,21.12
2023-08-17T05:51:05.408Z,21.15
2023-08-17T05:54:07.150Z,21.17
2023-08-17T05:57:08.803Z,21.27
2023-08-17T06:00:13.933Z,21.37
2023-08-17T06:03:15.581Z,21.56
2023-08-17T06:06:17.240Z,21.69
2023-08-17T06:09:18.979Z,21.77
2023-08-17T06:12:20.559Z,21.60
2023-08-17T06:15:22.987Z,21.83
2023-08-17T06:18:24.635Z,22.17
2023-08-17T06:21:26.259Z,22.14
2023-08-17T06:24:27.871Z,22.10
2023-08-17T06:27:29.683Z,21.88
2023-08-17T06:30:31.498Z,22.04
2023-08-17T06:33:39.223Z,22.23
2023-08-17T06:36:40.914Z,22.32
2023-08-17T06:39:42.549Z,22.24
2023-08-17T06:42:44.241Z,22.32
2023-08-17T06:45:46.002Z,22.55
2023-08-17T06:48:47.673Z,22.67
2023-08-17T06:51:49.846Z,22.63
2023-08-17T06:54:52.443Z,22.96
2023-08-17T06:57:54.332Z,23.08
2023-08-17T07:00:56.172Z,23.14
2023-08-17T07:03:58.301Z,22.93
2023-08-17T07:07:00.731Z,23.39
2023-08-17T07:10:02.624Z,23.95
2023-08-17T07:13:04.715Z,24.33
2023-08-17T07:16:06.389Z,24.96
2023-08-17T07:19:08.048Z,24.51
2023-08-17T07:22:09.668Z,24.46
2023-08-17T07:25:11.339Z,24.88
2023-08-17T07:28:13.066Z,25.15
2023-08-17T07:31:14.954Z,25.23
2023-08-17T07:34:16.650Z,25.67
2023-08-17T07:37:23.424Z,26.11
2023-08-17T07:40:25.120Z,25.90
2023-08-17T07:43:26.739Z,25.95
2023-08-17T07:46:28.377Z,25.52
2023-08-17T07:49:32.624Z,25.00
2023-08-17T07:52:34.892Z,25.28
2023-08-17T07:58:42.974Z,25.44
2023-08-17T08:01:44.715Z,26.09
2023-08-17T08:04:46.383Z,26.32
2023-08-17T08:07:48.058Z,26.78
2023-08-17T08:10:49.702Z,25.97
2023-08-17T08:13:51.322Z,25.80
2023-08-17T08:16:52.991Z,26.40
2023-08-17T08:19:55.411Z,25.65
2023-08-17T08:22:57.037Z,26.01
2023-08-17T08:25:59.304Z,26.23
2023-08-17T08:29:01.796Z,26.58
2023-08-17T08:32:04.542Z,27.62
2023-08-17T08:35:06.683Z,27.12
2023-08-17T08:38:08.362Z,27.40
2023-08-17T08:41:10.672Z,27.36
2023-08-17T08:44:12.316Z,27.57
2023-08-17T08:47:14.892Z,26.83
2023-08-17T08:50:19.828Z,27.74
2023-08-17T08:53:29.223Z,28.57
2023-08-17T08:56:36.058Z,28.74
2023-08-17T08:59:45.167Z,28.67
2023-08-17T09:02:47.702Z,29.10
2023-08-17T09:05:50.638Z,29.36
2023-08-17T09:08:53.194Z,29.80
2023-08-17T09:11:54.754Z,29.09
2023-08-17T09:14:57.453Z,29.02
2023-08-17T09:17:59.386Z,29.94
2023-08-17T09:21:01.039Z,28.89
2023-08-17T09:24:02.663Z,29.44
2023-08-17T09:27:10.804Z,30.11
2023-08-17T09:30:13.088Z,29.39
2023-08-17T09:33:14.720Z,29.23
2023-08-17T09:36:16.359Z,29.11
2023-08-17T09:39:19.138Z,29.58
2023-08-17T09:42:22.806Z,28.84
2023-08-17T09:45:24.419Z,29.21
2023-08-17T09:48:32.948Z,28.58
2023-08-17T09:51:35.181Z,29.15
2023-08-17T09:54:37.027Z,29.22
2023-08-17T09:57:39.857Z,29.77
2023-08-17T10:00:50.485Z,29.72
2023-08-17T10:03:56.218Z,30.22
2023-08-17T10:07:06.777Z,30.42
2023-08-17T10:10:11.583Z,29.79
2023-08-17T10:13:16.779Z,30.71
2023-08-17T10:16:21.126Z,29.99
2023-08-17T10:19:34.987Z,28.70
2023-08-17T10:23:16.013Z,28.76
2023-08-17T10:26:18.815Z,30.01
2023-08-17T10:29:23.804Z,30.06
2023-08-17T10:32:26.443Z,30.11
2023-08-17T10:35:28.517Z,30.94
2023-08-17T10:38:30.119Z,30.44
2023-08-17T10:41:31.778Z,30.52
2023-08-17T10:44:47.406Z,30.53
2023-08-17T10:47:49.233Z,31.36
2023-08-17T10:51:02.671Z,31.36
2023-08-17T10:54:05.298Z,31.67
2023-08-17T10:57:37.598Z,32.00
2023-08-17T11:00:40.013Z,30.48
2023-08-17T11:03:43.791Z,30.02
2023-08-17T11:06:46.302Z,30.32
2023-08-17T11:09:48.055Z,30.69
2023-08-17T11:12:53.413Z,31.60
2023-08-17T11:15:55.694Z,32.39
2023-08-17T11:18:59.848Z,31.24
2023-08-17T11:22:02.117Z,29.90
2023-08-17T11:25:05.826Z,30.79
2023-08-17T11:28:09.738Z,30.48
2023-08-17T11:31:13.478Z,30.19
2023-08-17T11:34:18.062Z,30.06
2023-08-17T11:37:20.747Z,29.65
2023-08-17T11:40:24.724Z,30.33
2023-08-17T11:43:28.175Z,31.31
2023-08-17T11:46:30.338Z,30.92
2023-08-17T11:49:38.424Z,31.53
2023-08-17T11:52:46.178Z,32.93
2023-08-17T11:55:48.398Z,31.80
2023-08-17T11:58:50.051Z,32.12
2023-08-17T12:01:51.868Z,32.25
2023-08-17T12:04:54.882Z,30.56
2023-08-17T12:07:56.694Z,29.46
2023-08-17T12:10:58.582Z,29.22
2023-08-17T12:14:00.306Z,30.31
2023-08-17T12:17:02.024Z,29.32
2023-08-17T12:20:03.893Z,28.97
2023-08-17T12:23:06.597Z,28.83
2023-08-17T12:26:08.404Z,28.72
2023-08-17T12:29:10.635Z,28.58
2023-08-17T12:32:12.278Z,28.26
2023-08-17T12:35:14.074Z,29.14
2023-08-17T12:38:15.728Z,29.52
2023-08-17T12:41:18.727Z,29.58
2023-08-17T12:44:20.596Z,29.31
2023-08-17T12:47:22.211Z,29.16
2023-08-17T12:50:23.917Z,29.11
2023-08-17T12:53:25.559Z,28.79
2023-08-17T12:56:27.195Z,28.98
2023-08-17T12:59:28.843Z,29.63
2023-08-17T13:02:30.861Z,29.67
2023-08-17T13:05:34.085Z,29.69
2023-08-17T13:08:35.753Z,29.77
2023-08-17T13:11:37.318Z,29.61
2023-08-17T13:14:38.971Z,29.34
2023-08-17T13:17:40.634Z,28.81
2023-08-17T13:20:42.349Z,28.39
2023-08-17T13:23:43.939Z,28.32
2023-08-17T13:26:46.545Z,28.01
2023-08-17T13:29:48.335Z,27.70
2023-08-17T13:32:50.112Z,27.79
2023-08-17T13:35:52.361Z,27.70
2023-08-17T13:38:54.456Z,27.77
2023-08-17T13:41:56.085Z,27.95
2023-08-17T13:44:57.766Z,28.02
2023-08-17T13:47:59.427Z,28.01
2023-08-17T13:51:01.074Z,28.02
2023-08-17T13:54:02.734Z,27.82
2023-08-17T13:57:04.508Z,26.98
2023-08-17T14:00:07.502Z,24.27
2023-08-17T14:03:10.815Z,24.00
2023-08-17T14:06:12.525Z,23.74
2023-08-17T14:09:14.200Z,23.79
2023-08-17T14:12:15.863Z,23.70
2023-08-17T14:15:17.602Z,23.66
2023-08-17T14:18:19.329Z,23.87
2023-08-17T14:21:20.993Z,23.71
2023-08-17T14:24:22.686Z,24.22
2023-08-17T14:27:24.397Z,24.30
2023-08-17T14:30:27.299Z,24.66
2023-08-17T14:33:28.933Z,25.34
2023-08-17T14:36:30.977Z,25.09
2023-08-17T14:39:37.607Z,25.20
2023-08-17T14:42:39.655Z,25.32
2023-08-17T14:45:44.597Z,26.79
2023-08-17T14:48:46.291Z,27.54
2023-08-17T14:51:49.173Z,28.65
2023-08-17T14:54:50.852Z,29.13
2023-08-17T14:57:52.467Z,29.16
2023-08-17T15:00:54.063Z,29.41
2023-08-17T15:03:55.711Z,29.07
2023-08-17T15:06:57.317Z,28.25
2023-08-17T15:09:58.983Z,28.88
2023-08-17T15:13:00.840Z,29.03
2023-08-17T15:16:02.694Z,28.45
2023-08-17T15:19:08.222Z,28.88
2023-08-17T15:22:15.356Z,27.71
2023-08-17T15:25:17.741Z,27.96
2023-08-17T15:28:19.948Z,28.81
2023-08-17T15:31:21.705Z,28.60
2023-08-17T15:34:23.314Z,28.59
2023-08-17T15:37:25.760Z,28.69
2023-08-17T15:40:27.622Z,28.63
2023-08-17T15:43:29.259Z,28.26
2023-08-17T15:46:31.339Z,26.31
2023-08-17T15:49:33.001Z,25.85
2023-08-17T15:52:34.592Z,25.47
2023-08-17T15:55:36.482Z,25.63
2023-08-17T15:58:38.118Z,25.65
2023-08-17T16:01:39.768Z,25.39
2023-08-17T16:04:41.503Z,26.53
2023-08-17T16:07:43.111Z,27.98
2023-08-17T16:10:44.719Z,28.61
2023-08-17T16:13:47.028Z,29.26
2023-08-17T16:16:48.907Z,28.35
2023-08-17T16:19:50.536Z,29.25
2023-08-17T16:22:52.164Z,29.01
2023-08-17T16:25:53.999Z,29.08
2023-08-17T16:28:55.640Z,29.31
2023-08-17T16:32:09.030Z,28.50
2023-08-17T16:35:11.193Z,27.98
2023-08-17T16:38:12.853Z,27.39
2023-08-17T16:41:14.489Z,26.90
2023-08-17T16:44:16.124Z,26.39
2023-08-17T16:47:19.871Z,26.09
2023-08-17T16:50:21.674Z,25.99
2023-08-17T16:53:23.387Z,25.99
2023-08-17T16:56:25.063Z,25.80
2023-08-17T16:59:26.689Z,25.62
2023-08-17T17:02:28.275Z,25.34
2023-08-17T17:05:29.894Z,25.16
2023-08-17T17:08:31.464Z,25.06
2023-08-17T17:11:33.146Z,25.10
2023-08-17T17:14:34.845Z,24.96
2023-08-17T17:17:36.700Z,25.04
2023-08-17T17:20:38.427Z,25.09
2023-08-17T17:23:40.079Z,25.04
2023-08-17T17:26:41.810Z,25.06
2023-08-17T17:29:43.485Z,24.80
2023-08-17T17:32:45.112Z,24.60
2023-08-17T17:35:46.874Z,24.47
2023-08-17T17:38:48.504Z,24.29
2023-08-17T17:41:50.209Z,24.06
2023-08-17T17:44:51.835Z,23.92
2023-08-17T17:47:53.487Z,23.62
2023-08-17T17:50:55.151Z,23.58
2023-08-17T17:53:56.937Z,23.40
2023-08-17T17:57:00.117Z,23.26
2023-08-17T18:00:01.710Z,23.11
2023-08-17T18:03:14.082Z,23.04
2023-08-17T18:06:16.011Z,22.97
2023-08-17T18:09:17.657Z,22.93
2023-08-17T18:12:19.403Z,22.81
2023-08-17T18:15:21.126Z,22.87
2023-08-17T18:18:22.761Z,22.80
2023-08-17T18:21:24.473Z,22.76
2023-08-17T18:24:26.086Z,22.73
2023-08-17T18:27:27.951Z,22.71
2023-08-17T18:30:30.495Z,22.61
2023-08-17T18:33:32.324Z,22.59
2023-08-17T18:36:35.455Z,22.52
2023-08-17T18:39:37.154Z,22.49
2023-08-17T18:42:40.500Z,22.41
2023-08-17T18:45:42.170Z,22.47
2023-08-17T18:48:43.754Z,22.41
2023-08-17T18:51:45.342Z,22.36
2023-08-17T18:55:01.291Z,22.25
2023-08-17T18:58:03.217Z,22.20
2023-08-17T19:01:04.860Z,22.12
2023-08-17T19:04:06.616Z,22.06
2023-08-17T19:07:08.298Z,21.98
2023-08-17T19:10:10.190Z,22.04
2023-08-17T19:13:11.839Z,22.00
2023-08-17T19:16:13.521Z,21.97
2023-08-17T19:19:15.244Z,21.89
2023-08-17T19:22:16.949Z,21.76
2023-08-17T19:25:18.621Z,21.74
2023-08-17T19:28:20.221Z,21.63
2023-08-17T19:31:22.069Z,21.64
2023-08-17T19:34:23.948Z,21.61
2023-08-17T19:37:25.907Z,21.64
2023-08-17T19:40:28.574Z,21.63
2023-08-17T19:43:30.206Z,21.52
2023-08-17T19:46:32.275Z,21.48
2023-08-17T19:49:33.877Z,21.48
2023-08-17T19:52:35.460Z,21.40
2023-08-17T19:55:37.123Z,21.26
2023-08-17T19:58:38.833Z,21.16
2023-08-17T20:01:40.507Z,21.16
2023-08-17T20:04:42.361Z,21.13
2023-08-17T20:07:44.056Z,21.10
2023-08-17T20:10:45.799Z,21.18
2023-08-17T20:13:47.743Z,21.16
2023-08-17T20:16:49.597Z,21.12
2023-08-17T20:19:51.261Z,21.17
2023-08-17T20:22:53.014Z,21.15
2023-08-17T20:25:57.454Z,21.14
2023-08-17T20:28:59.303Z,21.19
2023-08-17T20:32:00.994Z,21.26
2023-08-17T20:35:02.615Z,21.25
2023-08-17T20:38:04.837Z,21.30
2023-08-17T20:41:06.512Z,21.27
2023-08-17T20:44:08.481Z,21.26
2023-08-17T20:47:10.144Z,21.25
2023-08-17T20:50:13.498Z,21.25
2023-08-17T20:53:18.077Z,21.16
2023-08-17T20:56:20.629Z,21.16
2023-08-17T20:59:22.351Z,21.10
2023-08-17T21:02:24.032Z,21.11
2023-08-17T21:05:28.574Z,21.05
2023-08-17T21:08:30.204Z,21.09
2023-08-17T21:11:31.840Z,21.01
2023-08-17T21:14:33.454Z,20.95
2023-08-17T21:17:35.275Z,20.94
2023-08-17T21:20:36.891Z,20.91
2023-08-17T21:23:38.527Z,20.84
2023-08-17T21:26:40.301Z,20.88
2023-08-17T21:29:41.923Z,20.83
2023-08-17T21:32:43.779Z,20.81
2023-08-17T21:35:45.489Z,20.78
2023-08-17T21:38:47.940Z,20.80
2023-08-17T21:41:49.658Z,20.74
2023-08-17T21:44:51.613Z,20.73
2023-08-17T21:47:53.336Z,20.63
2023-08-17T21:50:55.397Z,20.55
2023-08-17T21:53:59.391Z,20.47
2023-08-17T21:57:00.988Z,20.43
2023-08-17T22:00:03.100Z,20.40
2023-08-17T22:03:06.132Z,20.39
2023-08-17T22:06:08.075Z,20.35
2023-08-17T22:09:09.657Z,20.39
2023-08-17T22:12:11.735Z,20.38
2023-08-17T22:15:13.449Z,20.36
2023-08-17T22:18:15.067Z,20.27
2023-08-17T22:21:16.703Z,20.23
2023-08-17T22:24:18.401Z,20.27
2023-08-17T22:27:20.009Z,20.23
2023-08-17T22:30:21.773Z,20.19
2023-08-17T22:33:23.404Z,20.20
2023-08-17T22:36:25.337Z,20.18
2023-08-17T22:39:27.428Z,20.23
2023-08-17T22:42:29.054Z,20.17
2023-08-17T22:45:30.742Z,20.17
2023-08-17T22:48:32.458Z,20.12
2023-08-17T22:51:34.044Z,19.98
2023-08-17T22:54:35.739Z,19.98
2023-08-17T22:57:37.376Z,19.99
2023-08-17T23:00:40.195Z,20.05
2023-08-17T23:03:41.862Z,20.11
2023-08-17T23:06:43.463Z,20.17
2023-08-17T23:09:45.204Z,20.21
2023-08-17T23:12:46.863Z,20.27
2023-08-17T23:15:48.532Z,20.27
2023-08-17T23:18:50.462Z,20.24
2023-08-17T23:21:52.308Z,20.25
2023-08-17T23:24:53.913Z,20.27
2023-08-17T23:27:55.843Z,20.23
2023-08-17T23:31:01.003Z,20.28
2023-08-17T23:34:02.921Z,20.27
2023-08-17T23:37:04.641Z,20.23
2023-08-17T23:40:08.350Z,20.18
2023-08-17T23:43:10.063Z,20.09
2023-08-17T23:46:11.711Z,20.12
2023-08-17T23:49:15.356Z,20.21
2023-08-17T23:52:16.948Z,20.26
2023-08-17T23:55:18.720Z,20.36
2023-08-17T23:58:20.370Z,20.34
